createdAt,value
2018-07-06T00:00:28.373Z,15.07
2018-07-06T00:00:59.552Z,14.33
2018-07-06T00:01:30.731Z,16.20
2018-07-06T00:02:01.896Z,15.80
2018-07-06T00:02:33.107Z,15.77
2018-07-06T00:03:04.284Z,15.47
2018-07-06T00:03:35.456Z,15.40
2018-07-06T00:04:06.686Z,15.50
2018-07-06T00:04:37.868Z,15.90
2018-07-06T00:05:09.083Z,15.47
2018-07-06T00:05:40.264Z,16.17
2018-07-06T00:06:11.444Z,15.47
2018-07-06T00:06:42.616Z,16.50
2018-07-06T00:07:13.789Z,15.83
2018-07-06T00:07:44.989Z,15.77
2018-07-06T00:08:16.161Z,16.20
2018-07-06T00:08:47.328Z,15.57
2018-07-06T00:09:18.497Z,15.00
2018-07-06T00:09:49.668Z,15.93
2018-07-06T00:10:20.892Z,14.57
2018-07-06T00:10:52.164Z,15.50
2018-07-06T00:11:23.349Z,15.47
2018-07-06T00:11:54.581Z,15.20
2018-07-06T00:12:25.821Z,15.83
2018-07-06T00:12:56.964Z,15.43
2018-07-06T00:13:28.191Z,15.03
2018-07-06T00:13:59.433Z,16.03
2018-07-06T00:14:30.613Z,15.73
2018-07-06T00:15:01.834Z,15.90
2018-07-06T00:15:33.127Z,15.90
2018-07-06T00:16:04.361Z,15.73
2018-07-06T00:16:35.586Z,15.57
2018-07-06T00:17:06.763Z,15.77
2018-07-06T00:17:37.941Z,15.43
2018-07-06T00:18:09.171Z,15.97
2018-07-06T00:18:40.362Z,15.37
2018-07-06T00:19:11.592Z,14.27
2018-07-06T00:19:42.778Z,15.00
2018-07-06T00:20:13.957Z,15.33
2018-07-06T00:20:45.183Z,14.90
2018-07-06T00:21:16.362Z,15.10
2018-07-06T00:21:47.541Z,15.23
2018-07-06T00:22:18.816Z,15.40
2018-07-06T00:22:50.054Z,14.90
2018-07-06T00:23:21.226Z,14.97
2018-07-06T00:23:52.445Z,15.40
2018-07-06T00:24:23.652Z,14.83
2018-07-06T00:24:54.820Z,14.50
2018-07-06T00:25:25.989Z,14.80
2018-07-06T00:25:57.158Z,15.37
2018-07-06T00:26:28.396Z,14.77
2018-07-06T00:26:59.623Z,15.13
2018-07-06T00:27:30.792Z,15.10
2018-07-06T00:28:02.014Z,14.63
2018-07-06T00:28:33.181Z,15.30
2018-07-06T00:29:04.397Z,15.63
2018-07-06T00:29:35.581Z,14.73
2018-07-06T00:30:06.749Z,14.60
2018-07-06T00:30:37.985Z,15.20
2018-07-06T00:31:09.225Z,14.80
2018-07-06T00:31:40.404Z,15.90
2018-07-06T00:32:11.633Z,15.80
2018-07-06T00:32:42.868Z,15.63
2018-07-06T00:33:14.093Z,15.40
2018-07-06T00:33:45.269Z,15.43
2018-07-06T00:34:16.448Z,15.73
2018-07-06T00:34:47.626Z,15.43
2018-07-06T00:35:18.847Z,14.90
2018-07-06T00:35:50.033Z,14.23
2018-07-06T00:36:21.261Z,14.17
2018-07-06T00:36:52.530Z,15.30
2018-07-06T00:37:23.705Z,14.07
2018-07-06T00:37:54.893Z,13.47
2018-07-06T00:38:26.161Z,15.00
2018-07-06T00:38:57.353Z,15.43
2018-07-06T00:39:28.528Z,15.90
2018-07-06T00:39:59.790Z,14.67
2018-07-06T00:40:30.973Z,15.10
2018-07-06T00:41:02.143Z,15.27
2018-07-06T00:41:33.320Z,15.63
2018-07-06T00:42:04.556Z,15.50
2018-07-06T00:42:35.737Z,15.40
2018-07-06T00:43:06.917Z,15.43
2018-07-06T00:43:38.093Z,15.43
2018-07-06T00:44:09.270Z,14.97
2018-07-06T00:44:40.497Z,14.53
2018-07-06T00:45:11.678Z,15.70
2018-07-06T00:45:42.916Z,14.90
2018-07-06T00:46:14.145Z,16.47
2018-07-06T00:46:45.378Z,15.47
2018-07-06T00:47:16.596Z,15.43
2018-07-06T00:47:47.827Z,16.03
2018-07-06T00:48:19.049Z,16.20
2018-07-06T00:48:50.237Z,16.30
2018-07-06T00:49:21.439Z,16.03
2018-07-06T00:49:52.665Z,16.77
2018-07-06T00:50:23.894Z,16.70
2018-07-06T00:50:55.076Z,16.07
2018-07-06T00:51:26.251Z,16.13
2018-07-06T00:51:57.429Z,16.67
2018-07-06T00:52:28.698Z,15.93
2018-07-06T00:52:59.922Z,15.50
2018-07-06T00:53:31.104Z,16.07
2018-07-06T00:54:02.280Z,16.23
2018-07-06T00:54:33.452Z,15.87
2018-07-06T00:55:04.617Z,16.33
2018-07-06T00:55:35.792Z,16.93
2018-07-06T00:56:07.021Z,16.37
2018-07-06T00:56:38.192Z,16.53
2018-07-06T00:57:09.369Z,16.50
2018-07-06T00:57:40.593Z,15.90
2018-07-06T00:58:11.814Z,17.20
2018-07-06T00:58:43.033Z,16.23
2018-07-06T00:59:14.203Z,15.17
2018-07-06T00:59:45.368Z,16.53
2018-07-06T01:00:16.542Z,16.10
2018-07-06T01:00:47.785Z,15.17
2018-07-06T01:01:18.972Z,16.23
2018-07-06T01:01:50.301Z,15.73
2018-07-06T01:02:21.442Z,16.27
2018-07-06T01:02:52.621Z,16.67
2018-07-06T01:03:23.834Z,16.90
2018-07-06T01:03:55.067Z,16.83
2018-07-06T01:04:26.310Z,15.70
2018-07-06T01:04:57.550Z,15.93
2018-07-06T01:05:28.799Z,15.70
2018-07-06T01:06:00.034Z,15.90
2018-07-06T01:06:31.228Z,15.67
2018-07-06T01:07:02.419Z,16.10
2018-07-06T01:07:33.600Z,15.97
2018-07-06T01:08:04.791Z,15.85
2018-07-06T01:08:36.033Z,16.17
2018-07-06T01:09:07.266Z,16.30
2018-07-06T01:09:38.506Z,16.20
2018-07-06T01:10:09.798Z,15.97
2018-07-06T01:10:40.961Z,15.63
2018-07-06T01:11:12.136Z,14.83
2018-07-06T01:11:43.329Z,15.53
2018-07-06T01:12:14.512Z,15.50
2018-07-06T01:12:45.734Z,17.00
2018-07-06T01:13:16.912Z,15.90
2018-07-06T01:13:48.120Z,15.90
2018-07-06T01:14:19.340Z,16.53
2018-07-06T01:14:50.520Z,16.93
2018-07-06T01:15:21.696Z,16.70
2018-07-06T01:15:52.869Z,16.20
2018-07-06T01:16:24.093Z,16.63
2018-07-06T01:16:55.284Z,16.23
2018-07-06T01:17:26.521Z,16.57
2018-07-06T01:17:57.740Z,16.40
2018-07-06T01:18:28.921Z,15.53
2018-07-06T01:19:00.138Z,16.50
2018-07-06T01:19:31.370Z,16.60
2018-07-06T01:20:02.544Z,15.53
2018-07-06T01:20:33.772Z,16.63
2018-07-06T01:21:04.952Z,16.77
2018-07-06T01:21:36.132Z,16.57
2018-07-06T01:22:07.304Z,17.37
2018-07-06T01:22:38.526Z,16.43
2018-07-06T01:23:09.721Z,16.63
2018-07-06T01:23:40.908Z,16.30
2018-07-06T01:24:12.124Z,15.87
2018-07-06T01:24:43.308Z,17.50
2018-07-06T01:25:14.476Z,17.47
2018-07-06T01:25:45.660Z,16.23
2018-07-06T01:26:16.833Z,17.33
2018-07-06T01:26:48.017Z,17.00
2018-07-06T01:27:19.197Z,17.83
2018-07-06T01:27:50.374Z,17.43
2018-07-06T01:28:21.555Z,16.93
2018-07-06T01:28:52.792Z,17.60
2018-07-06T01:29:24.024Z,18.57
2018-07-06T01:29:55.205Z,17.83
2018-07-06T01:30:26.426Z,18.43
2018-07-06T01:30:57.604Z,18.60
2018-07-06T01:31:28.773Z,17.73
2018-07-06T01:31:59.944Z,18.43
2018-07-06T01:32:31.121Z,18.27
2018-07-06T01:33:02.353Z,18.75
2018-07-06T01:33:33.544Z,17.95
2018-07-06T01:34:04.763Z,17.77
2018-07-06T01:34:35.982Z,17.43
2018-07-06T01:35:07.237Z,18.20
2018-07-06T01:35:38.416Z,18.40
2018-07-06T01:36:09.596Z,17.27
2018-07-06T01:36:40.770Z,18.50
2018-07-06T01:37:11.945Z,18.40
2018-07-06T01:37:43.189Z,18.60
2018-07-06T01:38:14.370Z,18.40
2018-07-06T01:38:45.606Z,18.02
2018-07-06T01:39:16.887Z,17.90
2018-07-06T01:39:48.177Z,18.52
2018-07-06T01:40:19.360Z,18.43
2018-07-06T01:40:50.540Z,19.20
2018-07-06T01:41:21.720Z,18.67
2018-07-06T01:41:52.897Z,18.47
2018-07-06T01:42:24.075Z,17.83
2018-07-06T01:42:55.249Z,17.55
2018-07-06T01:43:26.484Z,18.57
2018-07-06T01:43:57.679Z,19.30
2018-07-06T01:44:28.856Z,17.17
2018-07-06T01:45:00.145Z,17.48
2018-07-06T01:45:31.337Z,17.63
2018-07-06T01:46:02.565Z,17.75
2018-07-06T01:46:33.813Z,17.15
2018-07-06T01:47:05.009Z,16.80
2018-07-06T01:47:36.277Z,17.92
2018-07-06T01:48:07.520Z,17.77
2018-07-06T01:48:38.760Z,17.47
2018-07-06T01:49:09.948Z,17.98
2018-07-06T01:49:41.913Z,17.82
2018-07-06T01:50:13.110Z,17.23
2018-07-06T01:50:44.312Z,17.35
2018-07-06T01:51:15.485Z,16.93
2018-07-06T01:51:46.675Z,16.15
2018-07-06T01:52:17.849Z,17.20
2018-07-06T01:52:49.060Z,16.85
2018-07-06T01:53:20.289Z,16.60
2018-07-06T01:53:51.523Z,17.43
2018-07-06T01:54:22.759Z,18.43
2018-07-06T01:54:53.932Z,18.30
2018-07-06T01:55:25.108Z,18.13
2018-07-06T01:55:57.078Z,19.93
2018-07-06T01:56:28.297Z,19.03
2018-07-06T01:56:59.528Z,19.27
2018-07-06T01:57:30.717Z,19.10
2018-07-06T01:58:01.989Z,19.95
2018-07-06T01:58:33.225Z,19.62
2018-07-06T01:59:04.406Z,19.37
2018-07-06T01:59:35.624Z,19.85
2018-07-06T02:00:06.810Z,19.48
2018-07-06T02:00:37.997Z,19.98
2018-07-06T02:01:09.233Z,20.15
2018-07-06T02:01:40.480Z,18.37
2018-07-06T02:02:11.700Z,17.23
2018-07-06T02:02:42.876Z,17.10
2018-07-06T02:03:14.053Z,16.52
2018-07-06T02:03:45.315Z,17.30
2018-07-06T02:04:16.608Z,17.02
2018-07-06T02:04:47.802Z,17.73
2018-07-06T02:05:19.020Z,16.67
2018-07-06T02:05:50.245Z,16.57
2018-07-06T02:06:21.433Z,17.03
2018-07-06T02:06:52.665Z,17.07
2018-07-06T02:07:23.889Z,16.90
2018-07-06T02:07:55.052Z,17.27
2018-07-06T02:08:26.237Z,16.93
2018-07-06T02:08:57.452Z,16.73
2018-07-06T02:09:28.681Z,16.60
2018-07-06T02:09:59.869Z,16.40
2018-07-06T02:10:31.101Z,17.32
2018-07-06T02:11:02.296Z,17.60
2018-07-06T02:11:33.476Z,17.20
2018-07-06T02:12:04.709Z,16.87
2018-07-06T02:12:35.957Z,16.57
2018-07-06T02:13:07.260Z,15.87
2018-07-06T02:13:38.851Z,16.80
2018-07-06T02:14:10.081Z,15.88
2018-07-06T02:14:41.260Z,16.87
2018-07-06T02:15:12.432Z,17.15
2018-07-06T02:15:43.607Z,16.70
2018-07-06T02:16:14.824Z,16.83
2018-07-06T02:16:46.017Z,17.17
2018-07-06T02:17:17.189Z,16.40
2018-07-06T02:17:48.412Z,16.70
2018-07-06T02:18:19.689Z,16.57
2018-07-06T02:18:50.868Z,16.45
2018-07-06T02:19:22.039Z,16.73
2018-07-06T02:19:53.319Z,16.93
2018-07-06T02:20:24.603Z,17.00
2018-07-06T02:20:55.848Z,16.67
2018-07-06T02:21:27.036Z,17.07
2018-07-06T02:21:58.279Z,17.65
2018-07-06T02:22:29.474Z,17.63
2018-07-06T02:23:00.637Z,18.57
2018-07-06T02:23:31.862Z,16.43
2018-07-06T02:24:03.057Z,17.57
2018-07-06T02:24:34.246Z,17.17
2018-07-06T02:25:05.462Z,17.05
2018-07-06T02:25:36.707Z,17.45
2018-07-06T02:26:07.896Z,16.97
2018-07-06T02:26:39.133Z,17.15
2018-07-06T02:27:10.373Z,17.45
2018-07-06T02:27:41.560Z,17.97
2018-07-06T02:28:12.743Z,18.03
2018-07-06T02:28:43.921Z,17.67
2018-07-06T02:29:15.106Z,17.80
2018-07-06T02:29:46.332Z,18.37
2018-07-06T02:30:17.521Z,18.40
2018-07-06T02:30:48.750Z,18.17
2018-07-06T02:31:19.994Z,17.67
2018-07-06T02:31:51.229Z,18.30
2018-07-06T02:32:22.441Z,18.57
2018-07-06T02:32:53.685Z,18.07
2018-07-06T02:33:24.877Z,17.67
2018-07-06T02:33:56.060Z,17.33
2018-07-06T02:34:27.228Z,17.13
2018-07-06T02:34:58.448Z,17.80
2018-07-06T02:35:29.636Z,17.87
2018-07-06T02:36:00.816Z,17.33
2018-07-06T02:36:32.059Z,17.57
2018-07-06T02:37:03.318Z,16.97
2018-07-06T02:37:34.509Z,17.60
2018-07-06T02:38:05.696Z,17.73
2018-07-06T02:38:36.938Z,17.17
2018-07-06T02:39:08.231Z,17.80
2018-07-06T02:39:39.428Z,16.73
2018-07-06T02:40:10.649Z,17.70
2018-07-06T02:40:41.830Z,18.55
2018-07-06T02:41:13.790Z,18.73
2018-07-06T02:41:44.972Z,18.40
2018-07-06T02:42:16.160Z,18.65
2018-07-06T02:42:47.336Z,18.17
2018-07-06T02:43:18.534Z,19.17
2018-07-06T02:43:49.773Z,18.05
2018-07-06T02:44:21.079Z,18.30
2018-07-06T02:44:52.276Z,19.12
2018-07-06T02:45:23.501Z,17.97
2018-07-06T02:45:54.681Z,19.27
2018-07-06T02:46:25.892Z,17.92
2018-07-06T02:46:57.064Z,19.30
2018-07-06T02:47:28.293Z,19.02
2018-07-06T02:47:59.543Z,18.42
2018-07-06T02:48:30.728Z,18.55
2018-07-06T02:49:01.981Z,18.52
2018-07-06T02:49:33.173Z,17.60
2018-07-06T02:50:04.412Z,18.70
2018-07-06T02:50:35.689Z,18.75
2018-07-06T02:51:06.889Z,19.35
2018-07-06T02:51:38.064Z,19.45
2018-07-06T02:52:09.293Z,19.27
2018-07-06T02:52:40.525Z,19.52
2018-07-06T02:53:11.712Z,19.60
2018-07-06T02:53:42.954Z,19.02
2018-07-06T02:54:14.176Z,18.85
2018-07-06T02:54:45.408Z,19.75
2018-07-06T02:55:16.630Z,19.40
2018-07-06T02:55:47.865Z,20.10
2018-07-06T02:56:19.145Z,19.42
2018-07-06T02:56:50.426Z,18.98
2018-07-06T02:57:21.626Z,19.90
2018-07-06T02:57:52.873Z,19.37
2018-07-06T02:58:24.175Z,19.82
2018-07-06T02:58:55.394Z,19.50
2018-07-06T02:59:26.726Z,19.15
2018-07-06T02:59:57.969Z,19.75
2018-07-06T03:00:29.233Z,18.95
2018-07-06T03:01:00.504Z,19.73
2018-07-06T03:01:31.857Z,19.07
2018-07-06T03:02:03.150Z,19.65
2018-07-06T03:02:34.424Z,19.23
2018-07-06T03:03:05.709Z,19.30
2018-07-06T03:03:36.973Z,18.98
2018-07-06T03:04:08.246Z,19.42
2018-07-06T03:04:39.503Z,18.27
2018-07-06T03:05:10.768Z,18.92
2018-07-06T03:05:42.029Z,18.02
2018-07-06T03:06:13.221Z,19.07
2018-07-06T03:06:44.400Z,19.30
2018-07-06T03:07:15.581Z,18.75
2018-07-06T03:07:46.759Z,18.55
2018-07-06T03:08:17.932Z,18.32
2018-07-06T03:08:49.106Z,18.27
2018-07-06T03:09:20.346Z,18.52
2018-07-06T03:09:51.568Z,17.80
2018-07-06T03:10:22.737Z,18.50
2018-07-06T03:10:53.960Z,17.87
2018-07-06T03:11:25.149Z,18.80
2018-07-06T03:11:56.385Z,17.12
2018-07-06T03:12:27.624Z,17.60
2018-07-06T03:12:58.808Z,17.55
2018-07-06T03:13:29.980Z,17.25
2018-07-06T03:14:01.200Z,17.87
2018-07-06T03:14:32.393Z,16.67
2018-07-06T03:15:03.617Z,17.75
2018-07-06T03:15:34.832Z,16.93
2018-07-06T03:16:06.014Z,17.17
2018-07-06T03:16:37.192Z,17.05
2018-07-06T03:17:08.440Z,17.35
2018-07-06T03:17:39.687Z,17.17
2018-07-06T03:18:10.880Z,17.60
2018-07-06T03:18:42.125Z,17.12
2018-07-06T03:19:13.410Z,17.48
2018-07-06T03:19:44.640Z,17.20
2018-07-06T03:20:15.829Z,17.50
2018-07-06T03:20:47.077Z,17.60
2018-07-06T03:21:18.269Z,18.12
2018-07-06T03:21:49.458Z,18.67
2018-07-06T03:22:20.648Z,17.70
2018-07-06T03:22:51.831Z,17.15
2018-07-06T03:23:23.008Z,17.97
2018-07-06T03:23:54.186Z,18.30
2018-07-06T03:24:25.408Z,17.65
2018-07-06T03:24:56.611Z,18.30
2018-07-06T03:25:27.854Z,17.85
2018-07-06T03:25:59.101Z,17.27
2018-07-06T03:26:30.298Z,16.95
2018-07-06T03:27:02.093Z,16.95
2018-07-06T03:27:33.298Z,18.07
2018-07-06T03:28:04.560Z,17.65
2018-07-06T03:28:35.969Z,17.70
2018-07-06T03:29:06.966Z,17.15
2018-07-06T03:29:38.177Z,16.57
2018-07-06T03:30:09.357Z,17.02
2018-07-06T03:30:40.543Z,16.73
2018-07-06T03:31:11.732Z,17.10
2018-07-06T03:31:42.908Z,15.73
2018-07-06T03:32:14.111Z,17.40
2018-07-06T03:32:45.293Z,16.50
2018-07-06T03:33:16.473Z,15.87
2018-07-06T03:33:48.212Z,15.77
2018-07-06T03:34:19.402Z,15.47
2018-07-06T03:34:50.584Z,14.70
2018-07-06T03:35:21.845Z,14.93
2018-07-06T03:35:53.081Z,13.97
2018-07-06T03:36:24.317Z,14.00
2018-07-06T03:36:55.556Z,14.33
2018-07-06T03:37:26.753Z,14.03
2018-07-06T03:37:57.932Z,13.57
2018-07-06T03:38:29.105Z,13.37
2018-07-06T03:39:00.281Z,13.20
2018-07-06T03:39:31.467Z,13.37
2018-07-06T03:40:02.700Z,13.80
2018-07-06T03:40:33.870Z,14.10
2018-07-06T03:41:05.098Z,13.70
2018-07-06T03:41:36.328Z,14.27
2018-07-06T03:42:07.501Z,12.80
2018-07-06T03:42:38.678Z,13.40
2018-07-06T03:43:09.901Z,13.90
2018-07-06T03:43:41.082Z,13.73
2018-07-06T03:44:12.261Z,13.23
2018-07-06T03:44:43.447Z,14.10
2018-07-06T03:45:14.661Z,13.70
2018-07-06T03:45:45.833Z,13.77
2018-07-06T03:46:17.029Z,13.43
2018-07-06T03:46:48.248Z,13.57
2018-07-06T03:47:19.444Z,13.67
2018-07-06T03:47:50.624Z,12.97
2018-07-06T03:48:21.819Z,13.50
2018-07-06T03:48:52.996Z,12.60
2018-07-06T03:49:24.176Z,13.10
2018-07-06T03:49:55.364Z,12.97
2018-07-06T03:50:26.608Z,13.57
2018-07-06T03:50:57.788Z,13.00
2018-07-06T03:51:29.007Z,13.10
2018-07-06T03:52:00.202Z,13.73
2018-07-06T03:52:31.378Z,12.63
2018-07-06T03:53:02.605Z,13.03
2018-07-06T03:53:33.803Z,12.43
2018-07-06T03:54:04.984Z,12.60
2018-07-06T03:54:36.160Z,12.53
2018-07-06T03:55:07.344Z,12.40
2018-07-06T03:55:38.571Z,12.47
2018-07-06T03:56:09.782Z,11.97
2018-07-06T03:56:40.960Z,12.73
2018-07-06T03:57:12.193Z,12.30
2018-07-06T03:57:43.380Z,12.90
2018-07-06T03:58:14.556Z,12.03
2018-07-06T03:58:45.782Z,12.40
2018-07-06T03:59:18.184Z,12.37
2018-07-06T03:59:49.368Z,12.47
2018-07-06T04:00:20.552Z,12.37
2018-07-06T04:00:52.488Z,13.73
2018-07-06T04:01:23.722Z,12.47
2018-07-06T04:01:54.905Z,13.70
2018-07-06T04:02:26.076Z,13.13
2018-07-06T04:02:57.265Z,13.17
2018-07-06T04:03:28.448Z,13.40
2018-07-06T04:03:59.660Z,13.03
2018-07-06T04:04:30.951Z,12.37
2018-07-06T04:05:02.138Z,12.63
2018-07-06T04:05:33.318Z,12.67
2018-07-06T04:06:04.551Z,13.13
2018-07-06T04:06:35.732Z,12.30
2018-07-06T04:07:06.913Z,12.67
2018-07-06T04:07:38.152Z,12.93
2018-07-06T04:08:09.405Z,13.17
2018-07-06T04:08:40.645Z,12.93
2018-07-06T04:09:11.836Z,13.03
2018-07-06T04:09:43.057Z,12.67
2018-07-06T04:10:14.231Z,12.77
2018-07-06T04:10:45.419Z,12.33
2018-07-06T04:11:16.650Z,12.60
2018-07-06T04:11:47.841Z,12.67
2018-07-06T04:12:19.058Z,12.23
2018-07-06T04:12:50.246Z,12.90
2018-07-06T04:13:21.428Z,12.63
2018-07-06T04:13:52.604Z,12.87
2018-07-06T04:14:23.835Z,12.90
2018-07-06T04:14:55.078Z,12.40
2018-07-06T04:15:26.282Z,11.00
2018-07-06T04:15:57.600Z,11.17
2018-07-06T04:16:28.792Z,12.23
2018-07-06T04:17:00.063Z,13.20
2018-07-06T04:17:31.250Z,13.10
2018-07-06T04:18:02.430Z,13.13
2018-07-06T04:18:33.656Z,12.87
2018-07-06T04:19:04.833Z,13.20
2018-07-06T04:19:36.006Z,13.47
2018-07-06T04:20:07.241Z,12.57
2018-07-06T04:20:38.426Z,12.67
2018-07-06T04:21:09.639Z,13.40
2018-07-06T04:21:40.874Z,12.93
2018-07-06T04:22:12.126Z,12.43
2018-07-06T04:22:43.316Z,13.27
2018-07-06T04:23:14.563Z,13.03
2018-07-06T04:23:45.830Z,12.47
2018-07-06T04:24:17.012Z,12.90
2018-07-06T04:24:48.188Z,13.30
2018-07-06T04:25:19.381Z,12.50
2018-07-06T04:25:50.654Z,13.57
2018-07-06T04:26:21.919Z,12.63
2018-07-06T04:26:53.110Z,12.90
2018-07-06T04:27:24.341Z,13.17
2018-07-06T04:27:55.580Z,13.07
2018-07-06T04:28:26.817Z,13.17
2018-07-06T04:28:58.022Z,13.00
2018-07-06T04:29:29.216Z,13.47
2018-07-06T04:30:00.393Z,12.23
2018-07-06T04:30:31.581Z,12.23
2018-07-06T04:31:02.770Z,13.57
2018-07-06T04:31:33.960Z,13.03
2018-07-06T04:32:05.185Z,12.40
2018-07-06T04:32:36.422Z,12.50
2018-07-06T04:33:07.596Z,12.93
2018-07-06T04:33:38.834Z,12.67
2018-07-06T04:34:10.115Z,12.33
2018-07-06T04:34:41.306Z,12.83
2018-07-06T04:35:12.484Z,12.37
2018-07-06T04:35:43.674Z,12.13
2018-07-06T04:36:14.850Z,12.20
2018-07-06T04:36:46.035Z,12.47
2018-07-06T04:37:17.260Z,12.60
2018-07-06T04:37:48.545Z,12.70
2018-07-06T04:38:19.729Z,11.97
2018-07-06T04:38:50.940Z,12.37
2018-07-06T04:39:22.165Z,11.93
2018-07-06T04:39:53.355Z,12.33
2018-07-06T04:40:24.529Z,12.43
2018-07-06T04:40:55.759Z,12.20
2018-07-06T04:41:27.013Z,12.13
2018-07-06T04:41:58.256Z,12.53
2018-07-06T04:42:29.446Z,11.93
2018-07-06T04:43:00.725Z,11.60
2018-07-06T04:43:31.969Z,12.90
2018-07-06T04:44:03.219Z,11.90
2018-07-06T04:44:34.380Z,13.53
2018-07-06T04:45:05.562Z,13.00
2018-07-06T04:45:36.739Z,12.67
2018-07-06T04:46:07.917Z,11.93
2018-07-06T04:46:39.092Z,13.53
2018-07-06T04:47:10.320Z,12.13
2018-07-06T04:47:41.513Z,12.20
2018-07-06T04:48:12.737Z,12.47
2018-07-06T04:48:43.919Z,12.07
2018-07-06T04:49:15.157Z,12.47
2018-07-06T04:49:46.345Z,13.10
2018-07-06T04:50:17.597Z,13.13
2018-07-06T04:50:48.786Z,12.20
2018-07-06T04:51:20.050Z,12.27
2018-07-06T04:51:52.393Z,12.13
2018-07-06T04:52:23.669Z,12.40
2018-07-06T04:52:54.858Z,12.17
2018-07-06T04:53:26.134Z,11.23
2018-07-06T04:53:57.373Z,11.80
2018-07-06T04:54:28.574Z,12.00
2018-07-06T04:54:59.768Z,11.60
2018-07-06T04:55:31.052Z,12.40
2018-07-06T04:56:02.358Z,12.63
2018-07-06T04:56:33.549Z,12.30
2018-07-06T04:57:04.732Z,12.97
2018-07-06T04:57:35.910Z,13.53
2018-07-06T04:58:07.143Z,13.10
2018-07-06T04:58:38.337Z,12.13
2018-07-06T04:59:09.521Z,16.50
2018-07-06T04:59:40.750Z,15.07
2018-07-06T05:00:12.540Z,14.37
2018-07-06T05:00:43.732Z,12.83
2018-07-06T05:01:14.916Z,12.50
2018-07-06T05:01:46.157Z,12.23
2018-07-06T05:02:17.345Z,12.07
2018-07-06T05:02:48.578Z,11.40
2018-07-06T05:03:19.839Z,12.27
2018-07-06T05:03:51.020Z,12.00
2018-07-06T05:04:22.260Z,11.20
2018-07-06T05:04:53.458Z,10.87
2018-07-06T05:05:24.706Z,11.57
2018-07-06T05:05:55.953Z,10.63
2018-07-06T05:06:27.140Z,10.20
2018-07-06T05:06:58.360Z,10.37
2018-07-06T05:07:29.540Z,10.63
2018-07-06T05:08:00.750Z,10.57
2018-07-06T05:08:31.960Z,10.90
2018-07-06T05:09:03.153Z,10.47
2018-07-06T05:09:34.368Z,10.90
2018-07-06T05:10:05.561Z,10.73
2018-07-06T05:10:36.820Z,10.30
2018-07-06T05:11:08.068Z,10.50
2018-07-06T05:11:39.261Z,9.73
2018-07-06T05:12:10.443Z,9.87
2018-07-06T05:12:41.679Z,10.07
2018-07-06T05:13:12.938Z,10.43
2018-07-06T05:13:44.185Z,9.70
2018-07-06T05:14:15.424Z,10.27
2018-07-06T05:14:46.661Z,9.63
2018-07-06T05:15:17.905Z,9.07
2018-07-06T05:15:49.137Z,9.40
2018-07-06T05:16:20.385Z,9.33
2018-07-06T05:16:51.579Z,8.47
2018-07-06T05:17:22.817Z,9.13
2018-07-06T05:17:54.045Z,9.13
2018-07-06T05:18:25.234Z,9.98
2018-07-06T05:18:56.474Z,9.43
2018-07-06T05:19:27.707Z,9.20
2018-07-06T05:19:58.947Z,9.43
2018-07-06T05:20:30.215Z,9.23
2018-07-06T05:21:01.406Z,9.43
2018-07-06T05:21:32.602Z,9.30
2018-07-06T05:22:03.772Z,9.40
2018-07-06T05:22:35.006Z,9.30
2018-07-06T05:23:06.164Z,9.75
2018-07-06T05:23:37.374Z,9.35
2018-07-06T05:24:08.614Z,9.55
2018-07-06T05:24:39.794Z,8.40
2018-07-06T05:25:11.294Z,8.78
2018-07-06T05:25:42.531Z,9.10
2018-07-06T05:26:14.784Z,9.18
2018-07-06T05:26:46.605Z,8.85
2018-07-06T05:27:17.846Z,9.63
2018-07-06T05:27:49.044Z,9.08
2018-07-06T05:28:20.277Z,9.83
2018-07-06T05:28:51.565Z,9.38
2018-07-06T05:29:22.801Z,9.20
2018-07-06T05:29:53.999Z,8.65
2018-07-06T05:30:26.185Z,9.55
2018-07-06T05:30:57.417Z,8.63
2018-07-06T05:31:28.608Z,8.60
2018-07-06T05:32:00.685Z,9.90
2018-07-06T05:32:31.961Z,9.08
2018-07-06T05:33:03.220Z,9.40
2018-07-06T05:33:34.404Z,8.88
2018-07-06T05:34:05.644Z,9.38
2018-07-06T05:34:36.877Z,8.48
2018-07-06T05:35:08.078Z,9.13
2018-07-06T05:35:39.309Z,8.95
2018-07-06T05:36:10.754Z,9.50
2018-07-06T05:36:41.951Z,9.70
2018-07-06T05:37:13.154Z,9.75
2018-07-06T05:37:44.416Z,9.73
2018-07-06T05:38:15.639Z,10.25
2018-07-06T05:38:46.829Z,9.90
2018-07-06T05:39:18.013Z,9.85
2018-07-06T05:39:49.205Z,9.10
2018-07-06T05:40:20.396Z,9.78
2018-07-06T05:40:51.572Z,9.33
2018-07-06T05:41:22.800Z,9.65
2018-07-06T05:41:54.992Z,9.30
2018-07-06T05:42:26.181Z,9.30
2018-07-06T05:42:58.841Z,9.28
2018-07-06T05:43:30.036Z,10.08
2018-07-06T05:44:01.220Z,10.35
2018-07-06T05:44:32.408Z,9.60
2018-07-06T05:45:04.594Z,9.53
2018-07-06T05:45:35.787Z,9.40
2018-07-06T05:46:07.021Z,9.33
2018-07-06T05:46:38.221Z,9.25
2018-07-06T05:47:09.466Z,9.73
2018-07-06T05:47:40.676Z,9.93
2018-07-06T05:48:11.961Z,9.35
2018-07-06T05:48:44.061Z,10.25
2018-07-06T05:49:15.277Z,10.45
2018-07-06T05:49:46.464Z,10.03
2018-07-06T05:50:17.690Z,9.78
2018-07-06T05:50:48.933Z,8.73
2018-07-06T05:51:20.118Z,9.30
2018-07-06T05:51:54.685Z,9.70
2018-07-06T05:52:25.909Z,9.30
2018-07-06T05:52:57.093Z,9.78
2018-07-06T05:53:28.274Z,9.85
2018-07-06T05:53:59.456Z,10.10
2018-07-06T05:54:30.637Z,9.63
2018-07-06T05:55:01.887Z,10.15
2018-07-06T05:55:33.128Z,10.32
2018-07-06T05:56:04.369Z,9.65
2018-07-06T05:56:35.564Z,9.58
2018-07-06T05:57:06.741Z,9.98
2018-07-06T05:57:37.922Z,10.15
2018-07-06T05:58:09.164Z,9.48
2018-07-06T05:58:40.397Z,10.50
2018-07-06T05:59:11.611Z,10.60
2018-07-06T05:59:42.809Z,10.45
2018-07-06T06:00:14.221Z,9.95
2018-07-06T06:00:46.583Z,10.20
2018-07-06T06:01:17.813Z,9.98
2018-07-06T06:01:49.066Z,11.28
2018-07-06T06:02:20.277Z,9.78
2018-07-06T06:02:51.450Z,10.65
2018-07-06T06:03:22.695Z,10.60
2018-07-06T06:03:53.881Z,11.00
2018-07-06T06:04:25.157Z,10.78
2018-07-06T06:04:56.352Z,10.93
2018-07-06T06:05:27.530Z,10.20
2018-07-06T06:05:58.818Z,10.48
2018-07-06T06:06:30.062Z,11.30
2018-07-06T06:07:01.256Z,10.08
2018-07-06T06:07:32.547Z,10.05
2018-07-06T06:08:03.826Z,10.88
2018-07-06T06:08:35.928Z,11.45
2018-07-06T06:09:07.121Z,10.72
2018-07-06T06:09:38.369Z,10.43
2018-07-06T06:10:09.553Z,10.40
2018-07-06T06:10:40.757Z,9.73
2018-07-06T06:11:11.945Z,10.50
2018-07-06T06:11:43.145Z,10.30
2018-07-06T06:12:14.379Z,9.60
2018-07-06T06:12:45.574Z,9.93
2018-07-06T06:13:16.974Z,10.28
2018-07-06T06:13:49.226Z,9.83
2018-07-06T06:14:20.478Z,10.03
2018-07-06T06:14:51.761Z,10.48
2018-07-06T06:15:22.934Z,10.65
2018-07-06T06:15:54.132Z,10.43
2018-07-06T06:16:25.325Z,10.78
2018-07-06T06:16:56.556Z,9.70
2018-07-06T06:17:27.752Z,10.13
2018-07-06T06:17:58.957Z,10.93
2018-07-06T06:18:30.242Z,10.58
2018-07-06T06:19:01.486Z,10.45
2018-07-06T06:19:32.743Z,10.23
2018-07-06T06:20:03.994Z,9.98
2018-07-06T06:20:35.253Z,10.60
2018-07-06T06:21:06.456Z,10.68
2018-07-06T06:21:37.689Z,9.73
2018-07-06T06:22:08.974Z,11.00
2018-07-06T06:22:40.255Z,10.15
2018-07-06T06:23:11.451Z,9.78
2018-07-06T06:23:42.676Z,10.10
2018-07-06T06:24:13.961Z,10.10
2018-07-06T06:24:45.244Z,18.75
2018-07-06T06:25:16.514Z,11.25
2018-07-06T06:25:47.710Z,10.80
2018-07-06T06:26:18.966Z,12.05
2018-07-06T06:26:50.163Z,22.32
2018-07-06T06:27:21.348Z,13.98
2018-07-06T06:27:52.717Z,12.88
2018-07-06T06:28:23.913Z,14.03
2018-07-06T06:28:55.128Z,10.63
2018-07-06T06:29:26.354Z,29.42
2018-07-06T06:29:58.846Z,14.60
2018-07-06T06:30:30.100Z,10.48
2018-07-06T06:31:01.337Z,10.18
2018-07-06T06:31:32.539Z,11.60
2018-07-06T06:32:03.779Z,13.35
2018-07-06T06:32:35.681Z,11.95
2018-07-06T06:33:06.982Z,15.55
2018-07-06T06:33:38.213Z,12.28
2018-07-06T06:34:10.146Z,12.60
2018-07-06T06:34:42.225Z,10.80
2018-07-06T06:35:14.350Z,11.50
2018-07-06T06:35:45.545Z,12.18
2018-07-06T06:36:16.781Z,11.25
2018-07-06T06:36:48.644Z,11.83
2018-07-06T06:37:20.445Z,10.98
2018-07-06T06:37:51.633Z,11.12
2018-07-06T06:38:22.812Z,11.68
2018-07-06T06:38:53.992Z,11.30
2018-07-06T06:39:25.233Z,11.33
2018-07-06T06:39:56.453Z,11.05
2018-07-06T06:40:28.261Z,10.72
2018-07-06T06:40:59.438Z,11.30
2018-07-06T06:41:30.707Z,12.13
2018-07-06T06:42:01.946Z,12.35
2018-07-06T06:42:33.149Z,12.05
2018-07-06T06:43:04.380Z,11.12
2018-07-06T06:43:35.597Z,12.03
2018-07-06T06:44:06.842Z,11.90